createdAt,value
2023-02-01T00:00:27.850Z,12.68
2023-02-01T00:02:54.585Z,12.03
2023-02-01T00:05:21.138Z,11.57
2023-02-01T00:07:49.991Z,11.38
2023-02-01T00:10:17.313Z,11.06
2023-02-01T00:12:44.313Z,11.94
2023-02-01T00:15:11.114Z,12.22
2023-02-01T00:17:38.174Z,12.30
2023-02-01T00:20:05.241Z,11.88
2023-02-01T00:22:31.750Z,12.24
2023-02-01T00:24:58.318Z,11.96
2023-02-01T00:27:24.857Z,11.69
2023-02-01T00:29:51.363Z,11.73
2023-02-01T00:32:18.227Z,11.42
2023-02-01T00:34:44.791Z,11.45
2023-02-01T00:37:11.716Z,11.81
2023-02-01T00:39:38.267Z,11.68
2023-02-01T00:42:04.841Z,11.27
2023-02-01T00:44:34.175Z,11.59
2023-02-01T00:47:01.341Z,11.33
2023-02-01T00:49:29.202Z,11.60
2023-02-01T00:51:56.074Z,11.54
2023-02-01T00:54:22.649Z,11.86
2023-02-01T00:56:49.202Z,11.91
2023-02-01T00:59:15.877Z,11.73
2023-02-01T01:01:42.449Z,11.91
2023-02-01T01:04:08.971Z,12.56
2023-02-01T01:06:35.637Z,11.89
2023-02-01T01:09:06.218Z,11.70
2023-02-01T01:11:36.150Z,11.82
2023-02-01T01:14:05.079Z,11.75
2023-02-01T01:16:32.443Z,11.90
2023-02-01T01:18:59.929Z,12.17
2023-02-01T01:21:27.235Z,12.11
2023-02-01T01:23:54.518Z,12.38
2023-02-01T01:26:26.460Z,12.52
2023-02-01T01:28:55.227Z,12.32
2023-02-01T01:31:22.092Z,11.93
2023-02-01T01:33:51.380Z,12.05
2023-02-01T01:36:18.248Z,12.36
2023-02-01T01:38:44.792Z,11.95
2023-02-01T01:41:16.539Z,12.25
2023-02-01T01:43:51.968Z,12.30
2023-02-01T01:46:24.252Z,12.67
2023-02-01T01:49:02.327Z,12.11
2023-02-01T01:51:33.217Z,12.76
2023-02-01T01:54:18.224Z,12.19
2023-02-01T01:56:49.596Z,11.77
2023-02-01T01:59:16.336Z,12.26
2023-02-01T02:01:43.419Z,11.94
2023-02-01T02:04:10.660Z,11.88
2023-02-01T02:06:56.929Z,12.01
2023-02-01T02:09:23.878Z,11.78
2023-02-01T02:11:50.458Z,11.74
2023-02-01T02:14:19.793Z,11.51
2023-02-01T02:17:31.000Z,12.36
2023-02-01T02:20:12.939Z,11.94
2023-02-01T02:23:12.548Z,11.97
2023-02-01T02:25:55.202Z,12.55
2023-02-01T02:28:40.520Z,14.41
2023-02-01T02:31:36.301Z,12.26
2023-02-01T02:34:18.051Z,17.67
2023-02-01T02:37:02.188Z,15.34
2023-02-01T02:39:40.958Z,15.98
2023-02-01T02:42:36.760Z,14.10
2023-02-01T02:45:26.450Z,12.36
2023-02-01T02:48:10.770Z,12.49
2023-02-01T02:51:03.082Z,12.27
2023-02-01T02:54:03.524Z,11.92
2023-02-01T02:56:49.242Z,11.56
2023-02-01T02:59:39.182Z,12.10
2023-02-01T03:02:25.579Z,12.40
2023-02-01T03:04:58.659Z,12.49
2023-02-01T03:07:45.162Z,13.53
2023-02-01T03:10:24.672Z,12.62
2023-02-01T03:12:57.404Z,11.60
2023-02-01T03:15:31.105Z,11.88
2023-02-01T03:18:01.584Z,11.79
2023-02-01T03:20:30.435Z,11.91
2023-02-01T03:23:00.150Z,11.62
2023-02-01T03:25:31.935Z,11.43
2023-02-01T03:28:07.027Z,11.55
2023-02-01T03:30:41.314Z,11.75
2023-02-01T03:33:21.819Z,11.82
2023-02-01T03:36:15.059Z,10.78
2023-02-01T03:38:59.644Z,11.05
2023-02-01T03:41:26.346Z,11.46
2023-02-01T03:44:02.167Z,12.42
2023-02-01T03:46:35.228Z,12.85
2023-02-01T03:49:07.837Z,12.95
2023-02-01T03:51:38.109Z,12.05
2023-02-01T03:54:07.528Z,11.69
2023-02-01T03:56:38.979Z,12.13
2023-02-01T03:59:05.567Z,11.68
2023-02-01T04:01:35.332Z,11.59
2023-02-01T04:04:01.901Z,11.54
2023-02-01T04:06:28.783Z,11.74
2023-02-01T04:08:59.804Z,11.34
2023-02-01T04:11:28.326Z,11.36
2023-02-01T04:13:54.860Z,11.33
2023-02-01T04:16:21.401Z,11.56
2023-02-01T04:18:48.072Z,11.82
2023-02-01T04:21:14.554Z,12.15
2023-02-01T04:23:41.038Z,12.69
2023-02-01T04:26:07.719Z,13.02
2023-02-01T04:28:34.281Z,12.17
2023-02-01T04:31:00.946Z,11.14
2023-02-01T04:33:27.571Z,11.20
2023-02-01T04:35:54.120Z,11.10
2023-02-01T04:38:20.674Z,11.48
2023-02-01T04:40:50.329Z,12.89
2023-02-01T04:43:18.060Z,12.25
2023-02-01T04:45:49.655Z,12.22
2023-02-01T04:48:17.474Z,11.61
2023-02-01T04:50:48.235Z,11.98
2023-02-01T04:53:18.639Z,13.36
2023-02-01T04:55:45.974Z,13.38
2023-02-01T04:58:12.506Z,12.08
2023-02-01T05:00:39.398Z,11.09
2023-02-01T05:03:06.322Z,11.02
2023-02-01T05:05:33.292Z,10.80
2023-02-01T05:07:59.838Z,11.10
2023-02-01T05:10:26.343Z,13.27
2023-02-01T05:13:11.817Z,13.82
2023-02-01T05:15:38.356Z,12.16
2023-02-01T05:18:05.225Z,11.57
2023-02-01T05:20:31.853Z,11.80
2023-02-01T05:22:58.426Z,11.20
2023-02-01T05:25:25.096Z,11.96
2023-02-01T05:27:51.884Z,11.23
2023-02-01T05:30:18.524Z,10.83
2023-02-01T05:32:45.038Z,11.15
2023-02-01T05:35:11.625Z,10.92
2023-02-01T05:37:38.129Z,11.07
2023-02-01T05:40:05.378Z,11.06
2023-02-01T05:42:31.898Z,10.77
2023-02-01T05:44:58.458Z,10.75
2023-02-01T05:47:24.972Z,10.81
2023-02-01T05:49:51.484Z,10.94
2023-02-01T05:52:20.395Z,10.70
2023-02-01T05:54:50.331Z,11.24
2023-02-01T05:57:17.234Z,11.09
2023-02-01T05:59:46.445Z,11.18
2023-02-01T06:02:13.093Z,10.73
2023-02-01T06:04:40.165Z,10.33
2023-02-01T06:07:08.635Z,10.68
2023-02-01T06:09:36.389Z,11.04
2023-02-01T06:12:04.177Z,10.68
2023-02-01T06:14:30.892Z,10.81
2023-02-01T06:16:57.541Z,10.53
2023-02-01T06:19:24.792Z,10.47
2023-02-01T06:21:51.321Z,10.56
2023-02-01T06:24:17.863Z,10.34
2023-02-01T06:26:44.445Z,10.76
2023-02-01T06:29:11.623Z,10.92
2023-02-01T06:31:38.247Z,10.76
2023-02-01T06:34:05.014Z,10.66
2023-02-01T06:36:31.914Z,10.50
2023-02-01T06:39:00.179Z,10.58
2023-02-01T06:41:29.479Z,10.62
2023-02-01T06:43:56.427Z,10.57
2023-02-01T06:46:23.025Z,10.61
2023-02-01T06:48:51.227Z,10.37
2023-02-01T06:51:26.733Z,10.80
2023-02-01T06:53:53.487Z,10.64
2023-02-01T06:56:21.311Z,11.01
2023-02-01T06:58:48.678Z,10.79
2023-02-01T07:01:16.256Z,10.68
2023-02-01T07:03:43.296Z,10.67
2023-02-01T07:06:10.440Z,11.19
2023-02-01T07:08:38.835Z,10.57
2023-02-01T07:11:10.447Z,10.74
2023-02-01T07:13:37.844Z,10.47
2023-02-01T07:16:07.406Z,10.86
2023-02-01T07:18:34.315Z,11.00
2023-02-01T07:21:01.162Z,11.21
2023-02-01T07:23:28.695Z,11.45
2023-02-01T07:26:00.205Z,11.72
2023-02-01T07:28:29.123Z,11.34
2023-02-01T07:30:55.706Z,11.44
2023-02-01T07:33:25.988Z,11.43
2023-02-01T07:35:54.357Z,11.45
2023-02-01T07:38:22.705Z,11.26
2023-02-01T07:40:49.353Z,11.43
2023-02-01T07:43:16.046Z,11.43
2023-02-01T07:45:42.595Z,10.92
2023-02-01T07:48:09.134Z,11.07
2023-02-01T07:50:35.635Z,11.09
2023-02-01T07:53:02.892Z,10.91
2023-02-01T07:55:29.544Z,11.24
2023-02-01T07:57:59.640Z,11.53
2023-02-01T08:00:45.851Z,11.54
2023-02-01T08:03:12.384Z,11.02
2023-02-01T08:05:39.122Z,11.10
2023-02-01T08:08:05.969Z,11.12
2023-02-01T08:10:33.150Z,11.36
2023-02-01T08:13:00.879Z,11.58
2023-02-01T08:15:29.077Z,11.59
2023-02-01T08:17:56.140Z,11.72
2023-02-01T08:20:24.994Z,12.14
2023-02-01T08:22:54.323Z,12.10
2023-02-01T08:25:21.382Z,11.85
2023-02-01T08:27:48.232Z,12.18
2023-02-01T08:30:14.887Z,12.37
2023-02-01T08:32:41.451Z,12.22
2023-02-01T08:35:09.330Z,12.34
2023-02-01T08:37:36.468Z,12.43
2023-02-01T08:40:04.218Z,12.20
2023-02-01T08:42:49.237Z,12.25
2023-02-01T08:45:15.815Z,12.26
2023-02-01T08:47:42.538Z,12.38
2023-02-01T08:50:10.137Z,12.39
2023-02-01T08:52:38.288Z,12.08
2023-02-01T08:55:06.639Z,12.22
2023-02-01T08:57:34.424Z,11.96
2023-02-01T09:00:01.671Z,11.81
2023-02-01T09:02:28.255Z,11.82
2023-02-01T09:04:56.677Z,11.72
2023-02-01T09:07:23.655Z,12.27
2023-02-01T09:09:50.189Z,12.47
2023-02-01T09:12:16.699Z,13.27
2023-02-01T09:14:43.242Z,14.54
2023-02-01T09:17:09.951Z,15.51
2023-02-01T09:19:36.433Z,15.71
2023-02-01T09:22:03.099Z,16.52
2023-02-01T09:24:29.689Z,16.04
2023-02-01T09:26:56.319Z,15.64
2023-02-01T09:29:22.889Z,15.31
2023-02-01T09:32:03.036Z,15.08
2023-02-01T09:34:30.910Z,14.64
2023-02-01T09:36:57.453Z,14.35
2023-02-01T09:39:24.271Z,13.39
2023-02-01T09:41:59.222Z,13.39
2023-02-01T09:44:43.891Z,13.98
2023-02-01T09:47:18.548Z,14.57
2023-02-01T09:50:11.118Z,13.85
2023-02-01T09:52:45.731Z,13.70
2023-02-01T09:55:23.716Z,13.73
2023-02-01T09:58:15.950Z,16.49
2023-02-01T10:00:51.682Z,14.86
2023-02-01T10:03:18.476Z,14.17
2023-02-01T10:06:08.600Z,14.98
2023-02-01T10:08:55.261Z,14.47
2023-02-01T10:11:51.035Z,14.39
2023-02-01T10:14:36.046Z,14.52
2023-02-01T10:17:20.038Z,13.84
2023-02-01T10:19:54.194Z,13.55
2023-02-01T10:22:51.827Z,13.41
2023-02-01T10:25:32.788Z,12.77
2023-02-01T10:28:02.507Z,13.05
2023-02-01T10:30:38.657Z,13.14
2023-02-01T10:33:18.382Z,13.14
2023-02-01T10:35:47.166Z,13.01
2023-02-01T10:38:25.404Z,13.02
2023-02-01T10:40:54.078Z,13.16
2023-02-01T10:43:20.985Z,13.07
2023-02-01T10:45:47.487Z,12.69
2023-02-01T10:48:14.275Z,13.01
2023-02-01T10:51:00.804Z,12.94
2023-02-01T10:53:40.528Z,13.54
2023-02-01T10:56:09.365Z,13.30
2023-02-01T10:58:38.066Z,13.38
2023-02-01T11:01:08.438Z,13.29
2023-02-01T11:03:46.195Z,12.71
2023-02-01T11:06:22.821Z,13.11
2023-02-01T11:08:51.926Z,12.49
2023-02-01T11:11:20.097Z,12.69
2023-02-01T11:14:11.790Z,13.06
2023-02-01T11:16:39.573Z,13.30
2023-02-01T11:19:07.197Z,13.83
2023-02-01T11:21:34.991Z,13.05
2023-02-01T11:24:04.158Z,12.83
2023-02-01T11:26:32.129Z,12.89
2023-02-01T11:29:05.303Z,12.67
2023-02-01T11:31:34.839Z,12.36
2023-02-01T11:34:09.893Z,12.17
2023-02-01T11:36:37.937Z,12.24
2023-02-01T11:39:13.842Z,12.19
2023-02-01T11:41:55.845Z,12.61
2023-02-01T11:44:34.520Z,12.07
2023-02-01T11:47:32.366Z,11.58
2023-02-01T11:50:13.376Z,11.61
2023-02-01T11:53:03.990Z,11.75
2023-02-01T11:55:58.130Z,12.12
2023-02-01T11:58:33.799Z,12.10
2023-02-01T12:01:23.934Z,12.02
2023-02-01T12:04:09.012Z,12.17
2023-02-01T12:06:58.592Z,11.82
2023-02-01T12:09:43.839Z,11.99
2023-02-01T12:12:48.013Z,11.35
2023-02-01T12:15:30.174Z,11.84
2023-02-01T12:18:14.052Z,11.83
2023-02-01T12:21:04.486Z,11.93
2023-02-01T12:23:42.023Z,10.91
2023-02-01T12:26:27.966Z,10.52
2023-02-01T12:29:08.260Z,11.09
2023-02-01T12:31:47.208Z,11.18
2023-02-01T12:34:31.281Z,11.10
2023-02-01T12:37:07.076Z,10.83
2023-02-01T12:39:46.467Z,10.99
2023-02-01T12:42:19.299Z,11.17
2023-02-01T12:44:55.196Z,10.87
2023-02-01T12:47:35.154Z,11.11
2023-02-01T12:50:09.138Z,10.87
2023-02-01T12:52:45.484Z,10.82
2023-02-01T12:55:39.920Z,10.44
2023-02-01T12:58:17.584Z,10.63
2023-02-01T13:00:53.841Z,10.11
2023-02-01T13:03:50.881Z,9.18
2023-02-01T13:06:22.736Z,9.38
2023-02-01T13:09:02.785Z,9.71
2023-02-01T13:11:33.962Z,9.80
2023-02-01T13:14:23.737Z,10.81
2023-02-01T13:17:00.506Z,10.10
2023-02-01T13:19:53.258Z,10.49
2023-02-01T13:22:33.940Z,10.50
2023-02-01T13:25:22.773Z,10.58
2023-02-01T13:27:50.081Z,10.74
2023-02-01T13:30:25.466Z,10.79
2023-02-01T13:33:53.194Z,10.68
2023-02-01T13:36:00.046Z,10.35
2023-02-01T13:38:36.780Z,10.30
2023-02-01T13:41:18.346Z,10.92
2023-02-01T13:43:50.550Z,10.96
2023-02-01T13:46:18.124Z,10.76
2023-02-01T13:48:52.715Z,10.55
2023-02-01T13:51:43.241Z,10.89
2023-02-01T13:54:27.155Z,10.72
2023-02-01T13:56:55.211Z,11.29
2023-02-01T13:59:40.403Z,11.77
2023-02-01T14:02:37.980Z,11.85
2023-02-01T14:05:08.742Z,11.37
2023-02-01T14:07:35.357Z,12.26
2023-02-01T14:10:39.673Z,11.14
2023-02-01T14:13:14.286Z,17.15
2023-02-01T14:15:40.930Z,18.81
2023-02-01T14:18:47.341Z,14.12
2023-02-01T14:21:31.959Z,12.58
2023-02-01T14:24:10.343Z,14.93
2023-02-01T14:26:52.007Z,13.13
2023-02-01T14:29:25.321Z,14.24
2023-02-01T14:32:06.973Z,15.28
2023-02-01T14:34:43.926Z,19.04
2023-02-01T14:37:18.321Z,13.75
2023-02-01T14:39:53.082Z,13.20
2023-02-01T14:42:38.045Z,12.42
2023-02-01T14:45:20.298Z,12.25
2023-02-01T14:47:50.654Z,12.55
2023-02-01T14:50:26.090Z,14.70
2023-02-01T14:53:10.642Z,12.40
2023-02-01T14:56:02.663Z,13.44
2023-02-01T14:58:35.385Z,13.21
2023-02-01T15:01:15.806Z,12.70
2023-02-01T15:03:55.475Z,13.03
2023-02-01T15:06:43.795Z,12.97
2023-02-01T15:09:15.662Z,12.73
2023-02-01T15:12:06.290Z,12.60
2023-02-01T15:14:37.061Z,13.30
2023-02-01T15:17:19.625Z,12.69
2023-02-01T15:20:14.446Z,12.40
2023-02-01T15:22:41.035Z,14.68
2023-02-01T15:25:21.380Z,15.15
2023-02-01T15:27:48.397Z,13.51
2023-02-01T15:30:27.393Z,12.67
2023-02-01T15:33:09.323Z,12.47
2023-02-01T15:35:41.841Z,13.11
2023-02-01T15:38:30.671Z,12.76
2023-02-01T15:41:14.047Z,12.59
2023-02-01T15:43:51.353Z,12.56
2023-02-01T15:46:30.841Z,12.58
2023-02-01T15:48:57.890Z,12.52
2023-02-01T15:51:33.528Z,12.96
2023-02-01T15:54:10.790Z,12.49
2023-02-01T15:56:40.186Z,11.92
2023-02-01T15:59:16.095Z,12.27
2023-02-01T16:01:43.365Z,12.42
2023-02-01T16:04:21.465Z,12.46
2023-02-01T16:06:50.951Z,12.84
2023-02-01T16:09:21.536Z,12.41
2023-02-01T16:12:00.117Z,13.12
2023-02-01T16:14:28.121Z,12.52
2023-02-01T16:16:58.194Z,12.79
2023-02-01T16:19:28.877Z,12.12
2023-02-01T16:21:56.838Z,12.80
2023-02-01T16:24:25.950Z,12.93
2023-02-01T16:26:52.906Z,13.72
2023-02-01T16:29:19.436Z,12.88
2023-02-01T16:31:46.226Z,13.06
2023-02-01T16:34:17.907Z,12.16
2023-02-01T16:36:53.079Z,15.73
2023-02-01T16:39:21.131Z,14.36
2023-02-01T16:41:48.033Z,12.00
2023-02-01T16:44:14.669Z,11.57
2023-02-01T16:46:44.610Z,11.37
2023-02-01T16:49:25.867Z,10.95
2023-02-01T16:51:57.298Z,10.25
2023-02-01T16:54:25.149Z,10.01
2023-02-01T16:56:51.657Z,11.48
2023-02-01T16:59:18.412Z,12.19
2023-02-01T17:01:45.184Z,11.04
2023-02-01T17:04:11.974Z,13.42
2023-02-01T17:06:39.424Z,11.46
2023-02-01T17:09:07.145Z,14.10
2023-02-01T17:11:34.514Z,13.35
2023-02-01T17:14:22.370Z,13.41
2023-02-01T17:16:50.593Z,13.62
2023-02-01T17:19:23.280Z,12.38
2023-02-01T17:21:54.871Z,11.48
2023-02-01T17:24:25.788Z,10.73
2023-02-01T17:26:52.721Z,11.14
2023-02-01T17:29:20.118Z,10.42
2023-02-01T17:31:51.007Z,10.28
2023-02-01T17:34:22.337Z,10.82
2023-02-01T17:36:49.772Z,10.87
2023-02-01T17:39:36.348Z,11.66
2023-02-01T17:42:04.883Z,11.78
2023-02-01T17:44:32.033Z,11.32
2023-02-01T17:46:59.680Z,10.29
2023-02-01T17:49:28.751Z,9.74
2023-02-01T17:51:57.552Z,9.69
2023-02-01T17:54:25.728Z,9.43
2023-02-01T17:56:52.756Z,9.32
2023-02-01T17:59:20.073Z,10.29
2023-02-01T18:01:47.000Z,9.94
2023-02-01T18:04:16.833Z,9.90
2023-02-01T18:06:44.130Z,9.92
2023-02-01T18:09:10.673Z,9.53
2023-02-01T18:11:37.939Z,10.01
2023-02-01T18:14:04.512Z,9.50
2023-02-01T18:16:33.892Z,9.27
2023-02-01T18:19:05.023Z,9.96
2023-02-01T18:21:37.966Z,10.15
2023-02-01T18:24:05.151Z,10.47
2023-02-01T18:26:31.943Z,10.34
2023-02-01T18:28:58.711Z,10.33
2023-02-01T18:31:29.789Z,10.48
2023-02-01T18:33:58.338Z,10.09
2023-02-01T18:36:26.026Z,11.40
2023-02-01T18:38:56.244Z,10.91
2023-02-01T18:41:23.967Z,10.45
2023-02-01T18:43:52.123Z,10.68
2023-02-01T18:46:19.283Z,10.42
2023-02-01T18:48:46.908Z,10.23
2023-02-01T18:51:19.684Z,10.39
2023-02-01T18:53:49.682Z,10.69
2023-02-01T18:56:20.708Z,10.62
2023-02-01T18:58:47.552Z,10.78
2023-02-01T19:01:17.113Z,11.09
2023-02-01T19:03:54.311Z,10.85
2023-02-01T19:06:27.098Z,11.07
2023-02-01T19:08:55.951Z,10.81
2023-02-01T19:11:22.833Z,10.61
2023-02-01T19:13:50.541Z,10.91
2023-02-01T19:16:17.697Z,10.86
2023-02-01T19:18:44.225Z,11.33
2023-02-01T19:21:13.081Z,11.01
2023-02-01T19:23:41.072Z,10.91
2023-02-01T19:26:12.545Z,10.60
2023-02-01T19:28:39.443Z,10.72
2023-02-01T19:31:08.186Z,10.67
2023-02-01T19:33:35.532Z,10.02
2023-02-01T19:36:05.788Z,10.22
2023-02-01T19:38:33.293Z,10.13
2023-02-01T19:41:00.317Z,10.41
2023-02-01T19:43:28.721Z,10.29
2023-02-01T19:45:55.995Z,10.37
2023-02-01T19:48:22.888Z,10.87
2023-02-01T19:50:49.832Z,10.89
2023-02-01T19:53:17.991Z,11.08
2023-02-01T19:55:45.814Z,11.23
2023-02-01T19:58:12.486Z,10.99
2023-02-01T20:00:38.156Z,10.86
2023-02-01T20:03:04.732Z,10.71
2023-02-01T20:05:31.326Z,10.54
2023-02-01T20:07:57.884Z,10.88
2023-02-01T20:10:24.620Z,10.89
2023-02-01T20:12:51.120Z,10.92
2023-02-01T20:15:17.668Z,11.03
2023-02-01T20:17:44.691Z,10.65
2023-02-01T20:20:11.851Z,10.66
2023-02-01T20:22:38.359Z,10.71
2023-02-01T20:25:06.054Z,11.01
2023-02-01T20:27:33.404Z,10.95
2023-02-01T20:29:59.942Z,11.40
2023-02-01T20:32:26.484Z,10.74
2023-02-01T20:34:54.204Z,11.38
2023-02-01T20:37:21.451Z,11.86
2023-02-01T20:39:48.050Z,12.16
2023-02-01T20:42:14.633Z,11.47
2023-02-01T20:44:41.125Z,11.36
2023-02-01T20:47:08.434Z,11.52
2023-02-01T20:49:35.675Z,11.43
2023-02-01T20:52:02.240Z,11.42
2023-02-01T20:54:28.761Z,11.05
2023-02-01T20:56:55.319Z,10.89
2023-02-01T20:59:22.207Z,10.82
2023-02-01T21:01:54.702Z,10.25
2023-02-01T21:04:25.085Z,10.73
2023-02-01T21:06:52.173Z,10.79
2023-02-01T21:09:18.664Z,10.79
2023-02-01T21:11:45.525Z,10.45
2023-02-01T21:14:12.739Z,10.60
2023-02-01T21:16:39.534Z,10.66
2023-02-01T21:19:06.768Z,10.47
2023-02-01T21:21:33.292Z,10.66
2023-02-01T21:24:00.540Z,10.55
2023-02-01T21:26:28.389Z,10.84
2023-02-01T21:28:56.344Z,10.69
2023-02-01T21:31:25.561Z,10.50
2023-02-01T21:33:52.628Z,10.28
2023-02-01T21:36:19.765Z,10.42
2023-02-01T21:38:51.252Z,10.28
2023-02-01T21:41:38.483Z,10.10
2023-02-01T21:44:06.034Z,10.54
2023-02-01T21:46:33.076Z,10.66
2023-02-01T21:49:05.338Z,10.39
2023-02-01T21:51:35.130Z,10.51
2023-02-01T21:54:02.108Z,10.44
2023-02-01T21:56:28.670Z,10.42
2023-02-01T21:58:55.511Z,10.19
2023-02-01T22:01:22.629Z,10.24
2023-02-01T22:03:49.864Z,10.27
2023-02-01T22:06:28.306Z,10.07
2023-02-01T22:08:55.240Z,10.11
2023-02-01T22:11:22.657Z,10.27
2023-02-01T22:13:49.683Z,10.02
2023-02-01T22:16:18.106Z,10.50
2023-02-01T22:18:45.608Z,10.66
2023-02-01T22:21:12.271Z,10.35
2023-02-01T22:23:38.874Z,10.71
2023-02-01T22:26:09.567Z,10.48
2023-02-01T22:28:40.325Z,10.26
2023-02-01T22:31:09.036Z,10.37
2023-02-01T22:33:37.235Z,10.57
2023-02-01T22:36:05.239Z,10.63
2023-02-01T22:38:33.466Z,10.73
2023-02-01T22:41:02.681Z,11.54
2023-02-01T22:43:29.394Z,11.77
2023-02-01T22:46:03.434Z,11.88
2023-02-01T22:48:31.232Z,11.63
2023-02-01T22:50:58.932Z,11.60
2023-02-01T22:53:26.189Z,11.78
2023-02-01T22:55:52.694Z,12.23
2023-02-01T22:58:19.630Z,12.01
2023-02-01T23:00:46.669Z,11.78
2023-02-01T23:03:13.194Z,11.96
2023-02-01T23:05:40.553Z,12.02
2023-02-01T23:08:07.085Z,11.73
2023-02-01T23:10:33.689Z,11.67
2023-02-01T23:13:00.202Z,11.64
2023-02-01T23:15:26.776Z,12.05
2023-02-01T23:17:53.339Z,11.95
2023-02-01T23:20:20.424Z,12.39
2023-02-01T23:22:48.873Z,11.99
2023-02-01T23:25:17.601Z,11.72
2023-02-01T23:27:44.580Z,11.76
2023-02-01T23:30:11.846Z,11.69
2023-02-01T23:32:38.607Z,11.64
2023-02-01T23:35:07.098Z,11.97
2023-02-01T23:37:33.609Z,12.23
2023-02-01T23:40:00.123Z,12.09
2023-02-01T23:42:26.685Z,12.21
2023-02-01T23:44:53.181Z,12.18
2023-02-01T23:47:19.705Z,11.82
2023-02-01T23:49:46.248Z,11.67
2023-02-01T23:52:12.769Z,11.69
2023-02-01T23:54:39.346Z,12.12
2023-02-01T23:57:05.858Z,12.53
2023-02-01T23:59:32.484Z,12.82
